createdAt,value
2023-04-26T00:02:06.900Z,12.49
2023-04-26T00:04:35.278Z,12.64
2023-04-26T00:07:03.452Z,12.59
2023-04-26T00:09:30.919Z,12.38
2023-04-26T00:11:58.930Z,12.30
2023-04-26T00:14:26.358Z,12.32
2023-04-26T00:16:53.729Z,12.39
2023-04-26T00:19:21.433Z,12.24
2023-04-26T00:21:48.854Z,12.36
2023-04-26T00:24:16.485Z,12.47
2023-04-26T00:26:44.254Z,12.33
2023-04-26T00:29:11.762Z,12.22
2023-04-26T00:31:40.174Z,12.35
2023-04-26T00:34:07.930Z,12.25
2023-04-26T00:36:35.412Z,12.40
2023-04-26T00:39:03.092Z,12.34
2023-04-26T00:41:30.778Z,12.29
2023-04-26T00:43:58.492Z,12.21
2023-04-26T00:46:28.824Z,12.38
2023-04-26T00:48:57.019Z,12.23
2023-04-26T00:51:24.699Z,11.94
2023-04-26T00:53:52.465Z,12.06
2023-04-26T00:56:21.379Z,12.27
2023-04-26T00:58:48.973Z,12.21
2023-04-26T01:01:16.622Z,12.18
2023-04-26T01:03:46.911Z,12.18
2023-04-26T01:06:14.414Z,12.27
2023-04-26T01:08:41.997Z,12.12
2023-04-26T01:11:09.724Z,12.10
2023-04-26T01:13:37.868Z,11.84
2023-04-26T01:16:08.200Z,11.81
2023-04-26T01:18:36.118Z,11.94
2023-04-26T01:21:04.962Z,11.91
2023-04-26T01:23:32.481Z,11.87
2023-04-26T01:26:00.333Z,11.77
2023-04-26T01:28:27.733Z,11.47
2023-04-26T01:30:55.116Z,11.60
2023-04-26T01:33:23.448Z,11.58
2023-04-26T01:35:52.072Z,11.48
2023-04-26T01:38:20.172Z,11.37
2023-04-26T01:40:47.898Z,11.42
2023-04-26T01:43:15.632Z,11.46
2023-04-26T01:45:49.417Z,11.49
2023-04-26T01:48:29.152Z,11.61
2023-04-26T01:50:56.541Z,11.48
2023-04-26T01:53:23.957Z,11.48
2023-04-26T01:55:51.657Z,11.47
2023-04-26T01:58:19.106Z,11.25
2023-04-26T02:00:46.500Z,11.33
2023-04-26T02:03:14.220Z,11.43
2023-04-26T02:05:41.832Z,11.36
2023-04-26T02:08:09.194Z,11.50
2023-04-26T02:10:37.057Z,11.22
2023-04-26T02:13:04.446Z,11.11
2023-04-26T02:15:31.807Z,11.11
2023-04-26T02:17:59.675Z,11.27
2023-04-26T02:20:27.182Z,11.44
2023-04-26T02:22:54.574Z,11.34
2023-04-26T02:25:22.430Z,11.35
2023-04-26T02:27:50.355Z,11.20
2023-04-26T02:30:17.818Z,11.33
2023-04-26T02:32:45.225Z,11.33
2023-04-26T02:35:13.031Z,11.21
2023-04-26T02:37:40.688Z,11.37
2023-04-26T02:40:10.929Z,11.36
2023-04-26T02:42:38.631Z,11.14
2023-04-26T02:45:07.119Z,11.06
2023-04-26T02:47:36.896Z,10.99
2023-04-26T02:50:09.064Z,11.02
2023-04-26T02:52:36.915Z,11.02
2023-04-26T02:55:05.499Z,11.18
2023-04-26T02:57:33.391Z,10.87
2023-04-26T03:00:01.249Z,10.99
2023-04-26T03:02:29.591Z,10.63
2023-04-26T03:04:57.201Z,10.47
2023-04-26T03:07:24.568Z,10.49
2023-04-26T03:09:52.274Z,10.39
2023-04-26T03:12:19.895Z,10.53
2023-04-26T03:14:47.315Z,10.22
2023-04-26T03:17:15.015Z,10.50
2023-04-26T03:19:42.483Z,10.37
2023-04-26T03:22:11.426Z,10.45
2023-04-26T03:24:39.259Z,10.58
2023-04-26T03:27:07.014Z,10.29
2023-04-26T03:29:34.450Z,10.27
2023-04-26T03:32:02.316Z,10.32
2023-04-26T03:34:29.702Z,10.02
2023-04-26T03:36:57.372Z,10.12
2023-04-26T03:39:25.336Z,10.34
2023-04-26T03:41:53.255Z,10.65
2023-04-26T03:44:20.621Z,10.73
2023-04-26T03:46:48.302Z,10.94
2023-04-26T03:49:15.918Z,10.88
2023-04-26T03:51:43.310Z,10.92
2023-04-26T03:54:11.178Z,11.00
2023-04-26T03:56:39.996Z,10.97
2023-04-26T03:59:09.345Z,11.14
2023-04-26T04:01:38.072Z,11.09
2023-04-26T04:04:06.012Z,11.20
2023-04-26T04:06:33.985Z,11.35
2023-04-26T04:09:01.699Z,11.16
2023-04-26T04:11:29.375Z,11.28
2023-04-26T04:13:56.946Z,11.33
2023-04-26T04:16:24.366Z,11.41
2023-04-26T04:18:52.386Z,11.25
2023-04-26T04:21:20.011Z,11.31
2023-04-26T04:23:47.708Z,11.25
2023-04-26T04:26:16.203Z,11.21
2023-04-26T04:28:45.518Z,11.29
2023-04-26T04:31:13.920Z,11.37
2023-04-26T04:33:41.657Z,11.18
2023-04-26T04:36:10.003Z,11.00
2023-04-26T04:38:37.457Z,10.97
2023-04-26T04:41:05.579Z,10.85
2023-04-26T04:43:34.576Z,10.82
2023-04-26T04:46:02.132Z,10.81
2023-04-26T04:48:29.986Z,10.68
2023-04-26T04:50:58.374Z,10.58
2023-04-26T04:53:26.259Z,10.73
2023-04-26T04:55:54.018Z,10.59
2023-04-26T04:58:22.463Z,10.70
2023-04-26T05:00:51.489Z,10.76
2023-04-26T05:03:20.163Z,10.79
2023-04-26T05:05:47.875Z,10.56
2023-04-26T05:08:15.464Z,10.67
2023-04-26T05:10:43.180Z,10.83
2023-04-26T05:13:10.681Z,10.93
2023-04-26T05:15:38.582Z,11.07
2023-04-26T05:18:06.401Z,11.14
2023-04-26T05:20:33.914Z,10.94
2023-04-26T05:23:01.348Z,11.06
2023-04-26T05:25:29.303Z,11.25
2023-04-26T05:27:57.096Z,11.06
2023-04-26T05:30:24.870Z,11.10
2023-04-26T05:32:52.807Z,11.04
2023-04-26T05:35:23.168Z,11.21
2023-04-26T05:37:50.618Z,11.39
2023-04-26T05:40:18.914Z,11.40
2023-04-26T05:42:46.378Z,11.23
2023-04-26T05:45:14.008Z,11.41
2023-04-26T05:47:41.867Z,11.38
2023-04-26T05:50:09.783Z,11.42
2023-04-26T05:52:37.993Z,11.39
2023-04-26T05:55:06.966Z,11.68
2023-04-26T05:57:34.679Z,11.68
2023-04-26T06:00:05.387Z,11.97
2023-04-26T06:02:41.582Z,12.09
2023-04-26T06:05:11.493Z,12.02
2023-04-26T06:07:39.448Z,12.20
2023-04-26T06:10:07.420Z,12.43
2023-04-26T06:12:35.401Z,12.50
2023-04-26T06:15:03.772Z,12.31
2023-04-26T06:17:32.203Z,12.81
2023-04-26T06:19:59.924Z,12.64
2023-04-26T06:22:28.180Z,12.84
2023-04-26T06:24:55.621Z,12.87
2023-04-26T06:27:23.328Z,12.89
2023-04-26T06:29:51.752Z,13.05
2023-04-26T06:32:19.716Z,12.93
2023-04-26T06:34:47.404Z,12.81
2023-04-26T06:37:14.845Z,12.56
2023-04-26T06:39:42.677Z,12.80
2023-04-26T06:42:11.900Z,13.46
2023-04-26T06:44:40.950Z,13.62
2023-04-26T06:47:09.548Z,13.24
2023-04-26T06:49:37.335Z,13.25
2023-04-26T06:52:08.278Z,13.60
2023-04-26T06:54:46.019Z,13.54
2023-04-26T06:57:21.536Z,13.40
2023-04-26T06:59:49.285Z,13.49
2023-04-26T07:02:16.754Z,13.50
2023-04-26T07:04:44.577Z,13.76
2023-04-26T07:07:13.658Z,14.17
2023-04-26T07:09:41.738Z,13.87
2023-04-26T07:12:11.699Z,13.89
2023-04-26T07:14:40.808Z,14.08
2023-04-26T07:17:08.260Z,14.17
2023-04-26T07:19:35.874Z,14.24
2023-04-26T07:22:04.690Z,14.35
2023-04-26T07:24:32.104Z,14.46
2023-04-26T07:26:59.635Z,14.58
2023-04-26T07:29:27.580Z,14.73
2023-04-26T07:31:55.013Z,14.78
2023-04-26T07:34:22.477Z,14.90
2023-04-26T07:36:50.108Z,15.35
2023-04-26T07:39:17.468Z,14.83
2023-04-26T07:41:44.900Z,14.72
2023-04-26T07:44:12.649Z,14.91
2023-04-26T07:46:40.132Z,14.61
2023-04-26T07:49:07.508Z,14.81
2023-04-26T07:51:36.746Z,14.79
2023-04-26T07:54:04.668Z,15.16
2023-04-26T07:56:32.567Z,14.37
2023-04-26T07:59:00.247Z,14.44
2023-04-26T08:01:28.079Z,13.78
2023-04-26T08:03:56.202Z,13.83
2023-04-26T08:06:24.490Z,14.07
2023-04-26T08:08:53.730Z,13.92
2023-04-26T08:11:21.807Z,14.03
2023-04-26T08:13:49.236Z,14.26
2023-04-26T08:16:16.720Z,14.44
2023-04-26T08:18:46.787Z,14.63
2023-04-26T08:21:15.125Z,14.66
2023-04-26T08:23:42.560Z,14.59
2023-04-26T08:26:10.340Z,14.67
2023-04-26T08:28:38.137Z,14.54
2023-04-26T08:31:05.634Z,14.56
2023-04-26T08:33:33.415Z,14.39
2023-04-26T08:36:03.666Z,14.43
2023-04-26T08:38:32.318Z,14.07
2023-04-26T08:41:03.037Z,14.45
2023-04-26T08:43:30.559Z,14.43
2023-04-26T08:45:59.353Z,14.35
2023-04-26T08:48:28.335Z,14.36
2023-04-26T08:50:55.906Z,14.38
2023-04-26T08:53:23.550Z,14.60
2023-04-26T08:55:51.437Z,14.40
2023-04-26T08:58:19.232Z,14.52
2023-04-26T09:00:47.177Z,14.33
2023-04-26T09:03:15.168Z,14.31
2023-04-26T09:05:44.349Z,14.51
2023-04-26T09:08:18.400Z,14.73
2023-04-26T09:10:46.448Z,14.76
2023-04-26T09:13:14.537Z,15.16
2023-04-26T09:15:42.284Z,15.13
2023-04-26T09:18:17.318Z,15.02
2023-04-26T09:20:45.612Z,14.98
2023-04-26T09:23:13.514Z,14.99
2023-04-26T09:25:41.369Z,14.97
2023-04-26T09:28:22.751Z,15.07
2023-04-26T09:30:50.920Z,15.29
2023-04-26T09:33:19.448Z,15.28
2023-04-26T09:35:46.973Z,15.26
2023-04-26T09:38:16.801Z,15.62
2023-04-26T09:40:46.548Z,15.49
2023-04-26T09:43:19.379Z,15.44
2023-04-26T09:45:54.919Z,15.53
2023-04-26T09:48:23.328Z,15.48
2023-04-26T09:50:53.113Z,15.44
2023-04-26T09:53:46.546Z,15.53
2023-04-26T09:56:19.810Z,15.67
2023-04-26T09:58:47.086Z,15.71
2023-04-26T10:01:19.005Z,15.56
2023-04-26T10:03:47.246Z,15.96
2023-04-26T10:06:15.827Z,15.41
2023-04-26T10:08:44.345Z,15.31
2023-04-26T10:11:13.114Z,15.27
2023-04-26T10:13:41.785Z,15.56
2023-04-26T10:16:10.146Z,15.62
2023-04-26T10:18:38.172Z,15.11
2023-04-26T10:21:12.948Z,15.21
2023-04-26T10:23:41.496Z,15.04
2023-04-26T10:26:47.290Z,15.16
2023-04-26T10:29:14.992Z,15.56
2023-04-26T10:32:01.804Z,15.97
2023-04-26T10:34:33.765Z,16.02
2023-04-26T10:37:11.417Z,15.75
2023-04-26T10:39:40.361Z,15.70
2023-04-26T10:42:30.916Z,15.56
2023-04-26T10:45:27.932Z,15.37
2023-04-26T10:48:19.793Z,15.59
2023-04-26T10:51:04.932Z,15.73
2023-04-26T10:53:53.872Z,15.53
2023-04-26T10:56:24.706Z,15.67
2023-04-26T10:59:22.418Z,15.41
2023-04-26T11:02:00.860Z,15.38
2023-04-26T11:04:51.573Z,15.44
2023-04-26T11:07:39.083Z,15.88
2023-04-26T11:10:10.751Z,16.10
2023-04-26T11:12:41.934Z,16.20
2023-04-26T11:15:12.800Z,15.91
2023-04-26T11:17:40.507Z,15.75
2023-04-26T11:20:16.348Z,15.85
2023-04-26T11:22:44.084Z,16.03
2023-04-26T11:25:13.258Z,15.91
2023-04-26T11:27:43.296Z,15.53
2023-04-26T11:30:11.832Z,15.67
2023-04-26T11:32:39.340Z,15.73
2023-04-26T11:35:07.223Z,15.74
2023-04-26T11:37:34.982Z,16.10
2023-04-26T11:40:02.437Z,16.16
2023-04-26T11:42:33.210Z,16.25
2023-04-26T11:45:01.676Z,16.42
2023-04-26T11:47:30.957Z,16.16
2023-04-26T11:49:58.443Z,16.21
2023-04-26T11:52:26.562Z,16.07
2023-04-26T11:55:07.247Z,16.01
2023-04-26T11:57:35.112Z,16.08
2023-04-26T12:00:15.008Z,15.97
2023-04-26T12:02:47.029Z,15.70
2023-04-26T12:05:22.726Z,15.62
2023-04-26T12:07:53.759Z,15.39
2023-04-26T12:10:32.451Z,15.30
2023-04-26T12:13:00.289Z,15.64
2023-04-26T12:15:46.249Z,15.59
2023-04-26T12:18:14.745Z,15.45
2023-04-26T12:20:43.118Z,15.93
2023-04-26T12:23:16.249Z,16.26
2023-04-26T12:25:57.377Z,16.37
2023-04-26T12:28:24.930Z,16.70
2023-04-26T12:30:52.701Z,16.92
2023-04-26T12:33:23.027Z,16.87
2023-04-26T12:35:51.591Z,16.54
2023-04-26T12:38:19.863Z,16.20
2023-04-26T12:40:47.313Z,15.95
2023-04-26T12:43:16.784Z,15.65
2023-04-26T12:45:44.644Z,15.63
2023-04-26T12:48:12.477Z,15.87
2023-04-26T12:50:40.191Z,15.57
2023-04-26T12:53:07.909Z,15.80
2023-04-26T12:55:35.607Z,15.63
2023-04-26T12:58:03.375Z,15.70
2023-04-26T13:00:31.260Z,15.47
2023-04-26T13:02:58.990Z,15.49
2023-04-26T13:05:26.734Z,15.67
2023-04-26T13:07:54.534Z,15.54
2023-04-26T13:10:22.125Z,15.81
2023-04-26T13:12:49.633Z,15.87
2023-04-26T13:15:17.885Z,15.75
2023-04-26T13:17:45.750Z,15.95
2023-04-26T13:20:13.884Z,16.04
2023-04-26T13:22:43.195Z,16.16
2023-04-26T13:25:11.189Z,16.07
2023-04-26T13:27:39.233Z,16.16
2023-04-26T13:30:08.885Z,15.71
2023-04-26T13:32:36.679Z,15.31
2023-04-26T13:35:04.398Z,15.41
2023-04-26T13:37:32.619Z,15.31
2023-04-26T13:40:00.172Z,15.15
2023-04-26T13:42:28.183Z,15.45
2023-04-26T13:44:55.880Z,15.27
2023-04-26T13:47:23.372Z,15.06
2023-04-26T13:49:51.089Z,15.16
2023-04-26T13:52:18.771Z,15.30
2023-04-26T13:54:46.531Z,15.53
2023-04-26T13:57:14.074Z,15.61
2023-04-26T13:59:41.750Z,15.64
2023-04-26T14:02:09.331Z,15.67
2023-04-26T14:04:37.383Z,15.68
2023-04-26T14:07:05.606Z,15.48
2023-04-26T14:09:33.146Z,15.10
2023-04-26T14:12:07.942Z,15.45
2023-04-26T14:14:37.108Z,15.52
2023-04-26T14:17:04.795Z,15.32
2023-04-26T14:19:32.365Z,15.31
2023-04-26T14:21:59.795Z,15.33
2023-04-26T14:24:27.554Z,15.46
2023-04-26T14:26:55.056Z,15.44
2023-04-26T14:29:22.456Z,15.23
2023-04-26T14:31:50.954Z,14.99
2023-04-26T14:34:18.590Z,14.88
2023-04-26T14:36:46.372Z,15.12
2023-04-26T14:39:14.045Z,15.03
2023-04-26T14:41:42.513Z,15.07
2023-04-26T14:44:10.516Z,14.90
2023-04-26T14:46:38.265Z,14.89
2023-04-26T14:49:06.359Z,14.75
2023-04-26T14:51:33.890Z,14.59
2023-04-26T14:54:01.905Z,14.27
2023-04-26T14:56:33.859Z,14.38
2023-04-26T14:59:01.735Z,14.68
2023-04-26T15:01:30.140Z,15.12
2023-04-26T15:04:00.245Z,15.24
2023-04-26T15:06:30.808Z,15.55
2023-04-26T15:08:58.427Z,15.53
2023-04-26T15:11:26.150Z,15.62
2023-04-26T15:13:53.892Z,15.54
2023-04-26T15:16:21.759Z,15.30
2023-04-26T15:18:51.708Z,15.33
2023-04-26T15:21:22.926Z,15.19
2023-04-26T15:23:50.526Z,15.09
2023-04-26T15:26:18.123Z,15.06
2023-04-26T15:28:45.819Z,14.91
2023-04-26T15:31:13.595Z,14.93
2023-04-26T15:33:41.652Z,14.81
2023-04-26T15:36:09.573Z,14.47
2023-04-26T15:38:36.967Z,14.35
2023-04-26T15:41:04.629Z,14.52
2023-04-26T15:43:32.350Z,14.52
2023-04-26T15:45:59.783Z,14.29
2023-04-26T15:48:27.219Z,14.05
2023-04-26T15:50:56.622Z,13.98
2023-04-26T15:53:24.650Z,14.17
2023-04-26T15:55:52.093Z,14.34
2023-04-26T15:58:19.844Z,14.53
2023-04-26T16:00:47.264Z,14.55
2023-04-26T16:03:15.100Z,14.45
2023-04-26T16:05:42.701Z,14.29
2023-04-26T16:08:10.479Z,14.27
2023-04-26T16:10:38.496Z,14.12
2023-04-26T16:13:06.030Z,14.31
2023-04-26T16:15:33.576Z,14.39
2023-04-26T16:18:01.574Z,14.24
2023-04-26T16:20:29.013Z,14.44
2023-04-26T16:22:56.440Z,14.45
2023-04-26T16:25:24.144Z,14.48
2023-04-26T16:27:51.621Z,14.64
2023-04-26T16:30:19.129Z,14.67
2023-04-26T16:32:46.790Z,14.86
2023-04-26T16:35:14.406Z,14.97
2023-04-26T16:37:44.235Z,14.74
2023-04-26T16:40:13.436Z,14.85
2023-04-26T16:42:44.472Z,15.10
2023-04-26T16:45:15.528Z,15.07
2023-04-26T16:47:43.884Z,14.95
2023-04-26T16:50:11.701Z,14.86
2023-04-26T16:52:39.102Z,14.96
2023-04-26T16:55:07.100Z,15.07
2023-04-26T16:57:34.853Z,14.96
2023-04-26T17:00:02.612Z,15.03
2023-04-26T17:02:30.186Z,15.10
2023-04-26T17:04:58.093Z,15.08
2023-04-26T17:07:25.710Z,14.94
2023-04-26T17:09:55.044Z,14.90
2023-04-26T17:12:22.713Z,14.76
2023-04-26T17:14:50.100Z,14.96
2023-04-26T17:17:17.534Z,15.12
2023-04-26T17:19:45.644Z,15.24
2023-04-26T17:22:13.147Z,14.99
2023-04-26T17:24:40.709Z,14.69
2023-04-26T17:27:08.633Z,14.92
2023-04-26T17:29:36.203Z,14.98
2023-04-26T17:32:03.861Z,15.13
2023-04-26T17:34:32.324Z,15.06
2023-04-26T17:37:00.004Z,15.19
2023-04-26T17:39:27.437Z,15.17
2023-04-26T17:41:55.141Z,15.00
2023-04-26T17:44:22.980Z,14.96
2023-04-26T17:46:50.384Z,14.88
2023-04-26T17:49:18.155Z,14.81
2023-04-26T17:51:45.539Z,14.98
2023-04-26T17:54:14.098Z,15.13
2023-04-26T17:56:43.469Z,14.95
2023-04-26T17:59:11.263Z,14.89
2023-04-26T18:01:38.739Z,14.65
2023-04-26T18:04:06.530Z,14.79
2023-04-26T18:06:34.038Z,14.54
2023-04-26T18:09:01.642Z,14.05
2023-04-26T18:11:31.868Z,13.98
2023-04-26T18:13:59.353Z,14.05
2023-04-26T18:16:26.889Z,13.91
2023-04-26T18:18:54.726Z,13.64
2023-04-26T18:21:22.097Z,13.42
2023-04-26T18:23:49.472Z,13.29
2023-04-26T18:26:17.149Z,13.42
2023-04-26T18:28:46.101Z,13.22
2023-04-26T18:31:13.577Z,13.31
2023-04-26T18:33:41.300Z,13.34
2023-04-26T18:36:08.888Z,13.18
2023-04-26T18:38:36.298Z,13.29
2023-04-26T18:41:04.019Z,13.30
2023-04-26T18:43:31.472Z,13.24
2023-04-26T18:45:59.128Z,13.29
2023-04-26T18:48:26.950Z,13.34
2023-04-26T18:50:55.098Z,13.31
2023-04-26T18:53:23.595Z,13.28
2023-04-26T18:55:53.065Z,13.31
2023-04-26T18:58:20.447Z,13.31
2023-04-26T19:00:49.763Z,13.34
2023-04-26T19:03:17.753Z,13.31
2023-04-26T19:05:45.619Z,13.23
2023-04-26T19:08:13.299Z,13.19
2023-04-26T19:10:41.134Z,13.21
2023-04-26T19:13:08.579Z,13.05
2023-04-26T19:15:36.497Z,13.05
2023-04-26T19:18:04.545Z,12.99
2023-04-26T19:20:32.173Z,12.99
2023-04-26T19:22:59.569Z,12.90
2023-04-26T19:25:27.365Z,12.81
2023-04-26T19:27:54.838Z,12.76
2023-04-26T19:30:22.304Z,12.65
2023-04-26T19:32:50.063Z,12.56
2023-04-26T19:35:17.495Z,12.49
2023-04-26T19:37:44.906Z,12.22
2023-04-26T19:40:12.968Z,12.14
2023-04-26T19:42:40.411Z,12.20
2023-04-26T19:45:08.166Z,12.26
2023-04-26T19:47:35.858Z,12.24
2023-04-26T19:50:04.100Z,12.21
2023-04-26T19:52:31.494Z,12.26
2023-04-26T19:54:59.195Z,12.15
2023-04-26T19:57:26.824Z,12.07
2023-04-26T19:59:54.194Z,12.08
2023-04-26T20:02:21.929Z,11.98
2023-04-26T20:04:49.722Z,11.95
2023-04-26T20:07:17.205Z,11.90
2023-04-26T20:09:44.916Z,11.86
2023-04-26T20:12:12.673Z,11.90
2023-04-26T20:14:40.102Z,11.80
2023-04-26T20:17:07.559Z,11.82
2023-04-26T20:19:35.653Z,11.82
2023-04-26T20:22:03.004Z,11.77
2023-04-26T20:24:30.526Z,11.64
2023-04-26T20:27:02.056Z,11.51
2023-04-26T20:29:29.865Z,11.46
2023-04-26T20:31:57.657Z,11.41
2023-04-26T20:34:25.813Z,11.26
2023-04-26T20:36:57.488Z,11.09
2023-04-26T20:39:34.166Z,11.01
2023-04-26T20:42:01.649Z,11.01
2023-04-26T20:44:30.019Z,10.96
2023-04-26T20:46:57.516Z,10.88
2023-04-26T20:49:24.950Z,10.84
2023-04-26T20:51:52.628Z,10.84
2023-04-26T20:54:20.888Z,10.77
2023-04-26T20:56:48.306Z,10.70
2023-04-26T20:59:15.988Z,10.75
2023-04-26T21:01:43.436Z,10.79
2023-04-26T21:04:11.179Z,10.78
2023-04-26T21:06:39.076Z,10.84
2023-04-26T21:09:06.821Z,10.89
2023-04-26T21:11:34.509Z,10.83
2023-04-26T21:14:02.522Z,10.93
2023-04-26T21:16:30.452Z,10.89
2023-04-26T21:18:57.890Z,10.92
2023-04-26T21:21:27.654Z,10.84
2023-04-26T21:23:55.618Z,10.92
2023-04-26T21:26:22.976Z,11.01
2023-04-26T21:28:50.967Z,10.97
2023-04-26T21:31:18.874Z,10.94
2023-04-26T21:33:46.453Z,10.78
2023-04-26T21:36:14.155Z,10.76
2023-04-26T21:38:42.105Z,10.79
2023-04-26T21:41:09.527Z,10.68
2023-04-26T21:43:37.211Z,10.61
2023-04-26T21:46:04.754Z,10.47
2023-04-26T21:48:32.202Z,10.35
2023-04-26T21:51:00.555Z,10.38
2023-04-26T21:53:28.178Z,10.22
2023-04-26T21:55:56.032Z,10.17
2023-04-26T21:58:23.777Z,10.23
2023-04-26T22:00:51.799Z,10.04
2023-04-26T22:03:20.060Z,10.04
2023-04-26T22:05:47.595Z,10.02
2023-04-26T22:08:15.051Z,9.98
2023-04-26T22:10:42.958Z,9.98
2023-04-26T22:13:10.441Z,9.99
2023-04-26T22:15:37.809Z,9.91
2023-04-26T22:18:05.595Z,9.76
2023-04-26T22:20:33.146Z,9.73
2023-04-26T22:23:00.526Z,9.77
2023-04-26T22:25:28.229Z,9.74
2023-04-26T22:27:55.909Z,9.84
2023-04-26T22:30:25.820Z,9.71
2023-04-26T22:32:55.518Z,9.66
2023-04-26T22:35:24.604Z,9.61
2023-04-26T22:37:52.050Z,9.54
2023-04-26T22:40:20.417Z,9.45
2023-04-26T22:42:48.124Z,9.34
2023-04-26T22:45:15.841Z,9.44
2023-04-26T22:47:43.583Z,9.39
2023-04-26T22:50:11.683Z,9.32
2023-04-26T22:52:39.103Z,9.27
2023-04-26T22:55:07.432Z,9.30
2023-04-26T22:57:35.289Z,9.27
2023-04-26T23:00:04.386Z,9.20
2023-04-26T23:02:32.616Z,9.18
2023-04-26T23:05:00.395Z,9.16
2023-04-26T23:07:27.952Z,9.07
2023-04-26T23:09:55.686Z,9.09
2023-04-26T23:12:23.699Z,9.02
2023-04-26T23:14:51.181Z,8.98
2023-04-26T23:17:20.401Z,8.94
2023-04-26T23:19:47.913Z,9.08
2023-04-26T23:22:15.672Z,9.14
2023-04-26T23:24:43.403Z,9.23
2023-04-26T23:27:10.983Z,9.22
2023-04-26T23:29:38.459Z,9.16
2023-04-26T23:32:06.166Z,9.20
2023-04-26T23:34:33.543Z,9.08
2023-04-26T23:37:07.328Z,9.25
2023-04-26T23:39:36.230Z,9.25
2023-04-26T23:42:04.138Z,9.34
2023-04-26T23:44:31.605Z,9.15
2023-04-26T23:46:59.356Z,9.27
2023-04-26T23:49:27.150Z,9.30
2023-04-26T23:51:54.575Z,9.35
2023-04-26T23:54:22.314Z,9.34
2023-04-26T23:56:49.735Z,9.39
2023-04-26T23:59:17.174Z,9.31
